createdAt,value
2019-05-15T00:01:20.172Z,50.18
2019-05-15T00:04:09.317Z,50.54
2019-05-15T00:06:59.288Z,50.32
2019-05-15T00:09:48.986Z,50.76
2019-05-15T00:12:35.799Z,50.77
2019-05-15T00:15:27.562Z,50.87
2019-05-15T00:18:14.769Z,51.12
2019-05-15T00:21:02.226Z,51.55
2019-05-15T00:23:52.635Z,51.65
2019-05-15T00:26:40.048Z,51.40
2019-05-15T00:29:28.878Z,51.36
2019-05-15T00:32:18.488Z,51.76
2019-05-15T00:35:05.524Z,51.96
2019-05-15T00:37:53.708Z,52.00
2019-05-15T00:40:41.087Z,52.43
2019-05-15T00:43:29.224Z,52.14
2019-05-15T00:46:18.335Z,52.37
2019-05-15T00:49:08.519Z,52.51
2019-05-15T00:51:54.896Z,53.10
2019-05-15T00:54:42.377Z,53.08
2019-05-15T00:57:29.839Z,53.29
2019-05-15T01:00:28.142Z,53.81
2019-05-15T01:03:14.717Z,54.17
2019-05-15T01:06:02.266Z,54.19
2019-05-15T01:08:49.673Z,54.54
2019-05-15T01:11:38.156Z,54.52
2019-05-15T01:14:27.845Z,54.70
2019-05-15T01:17:15.232Z,54.64
2019-05-15T01:20:03.064Z,54.63
2019-05-15T01:22:50.144Z,54.66
2019-05-15T01:25:38.962Z,54.40
2019-05-15T01:28:28.948Z,54.57
2019-05-15T01:31:16.340Z,54.47
2019-05-15T01:34:03.978Z,54.06
2019-05-15T01:36:51.816Z,54.32
2019-05-15T01:39:39.114Z,54.18
2019-05-15T01:42:28.005Z,54.09
2019-05-15T01:45:16.296Z,54.03
2019-05-15T01:48:03.680Z,53.76
2019-05-15T01:50:51.573Z,54.27
2019-05-15T01:53:41.861Z,53.72
2019-05-15T01:56:29.411Z,53.68
2019-05-15T01:59:18.855Z,53.88
2019-05-15T02:02:09.587Z,53.12
2019-05-15T02:04:59.190Z,53.71
2019-05-15T02:07:47.905Z,53.61
2019-05-15T02:10:35.080Z,54.13
2019-05-15T02:13:22.672Z,53.96
2019-05-15T02:16:10.605Z,53.98
2019-05-15T02:18:59.376Z,54.27
2019-05-15T02:21:48.985Z,54.54
2019-05-15T02:24:38.863Z,54.80
2019-05-15T02:27:25.745Z,55.35
2019-05-15T02:30:24.258Z,55.25
2019-05-15T02:33:03.358Z,55.46
2019-05-15T02:35:50.813Z,55.53
2019-05-15T02:38:40.841Z,55.78
2019-05-15T02:41:29.746Z,55.35
2019-05-15T02:44:19.619Z,55.18
2019-05-15T02:47:05.561Z,55.71
2019-05-15T02:49:52.788Z,55.35
2019-05-15T02:52:44.708Z,55.78
2019-05-15T02:55:29.854Z,55.23
2019-05-15T02:58:21.251Z,56.00
2019-05-15T03:01:09.238Z,55.88
2019-05-15T03:03:59.439Z,56.14
2019-05-15T03:06:49.345Z,56.10
2019-05-15T03:09:35.313Z,56.45
2019-05-15T03:12:23.274Z,56.78
2019-05-15T03:15:10.614Z,56.84
2019-05-15T03:18:00.354Z,56.55
2019-05-15T03:20:50.125Z,56.61
2019-05-15T03:23:40.014Z,56.99
2019-05-15T03:26:29.624Z,56.94
2019-05-15T03:29:15.920Z,56.90
2019-05-15T03:32:17.497Z,57.08
2019-05-15T03:34:56.670Z,57.27
2019-05-15T03:37:42.029Z,57.39
2019-05-15T03:40:31.327Z,57.46
2019-05-15T03:43:19.997Z,57.49
2019-05-15T03:46:09.103Z,57.73
2019-05-15T03:48:56.867Z,57.54
2019-05-15T03:51:45.822Z,58.04
2019-05-15T03:54:33.818Z,58.02
2019-05-15T03:57:23.191Z,58.17
2019-05-15T04:00:11.416Z,58.22
2019-05-15T04:02:59.240Z,58.05
2019-05-15T04:05:49.413Z,58.67
2019-05-15T04:08:39.101Z,58.78
2019-05-15T04:11:25.729Z,58.46
2019-05-15T04:14:13.097Z,58.83
2019-05-15T04:17:00.249Z,58.75
2019-05-15T04:19:49.698Z,58.99
2019-05-15T04:22:39.810Z,59.15
2019-05-15T04:25:29.455Z,58.92
2019-05-15T04:28:19.123Z,59.18
2019-05-15T04:31:05.770Z,59.09
2019-05-15T04:33:53.161Z,58.87
2019-05-15T04:36:44.487Z,58.70
2019-05-15T04:39:29.790Z,59.06
2019-05-15T04:42:20.006Z,58.35
2019-05-15T04:45:09.663Z,58.59
2019-05-15T04:47:58.544Z,58.80
2019-05-15T04:50:44.753Z,58.00
2019-05-15T04:53:33.249Z,57.59
2019-05-15T04:56:20.963Z,57.61
2019-05-15T04:59:10.190Z,57.53
2019-05-15T05:02:16.529Z,54.72
2019-05-15T05:04:49.258Z,49.66
2019-05-15T05:07:38.678Z,46.03
2019-05-15T05:10:24.592Z,45.93
2019-05-15T05:13:12.076Z,49.59
2019-05-15T05:15:59.397Z,49.83
2019-05-15T05:18:48.805Z,50.30
2019-05-15T05:21:35.892Z,53.04
2019-05-15T05:24:27.956Z,54.67
2019-05-15T05:27:19.229Z,54.68
2019-05-15T05:30:08.636Z,55.34
2019-05-15T05:32:57.996Z,55.18
2019-05-15T05:35:48.171Z,55.16
2019-05-15T05:38:35.188Z,55.74
2019-05-15T05:41:24.161Z,56.09
2019-05-15T05:44:13.560Z,55.09
2019-05-15T05:47:01.212Z,54.97
2019-05-15T05:49:48.938Z,54.02
2019-05-15T05:52:39.135Z,54.08
2019-05-15T05:55:28.297Z,53.37
2019-05-15T05:58:15.259Z,53.40
2019-05-15T06:01:02.815Z,51.26
2019-05-15T06:03:51.056Z,50.52
2019-05-15T06:06:38.542Z,49.15
2019-05-15T06:09:27.784Z,49.09
2019-05-15T06:12:18.685Z,49.91
2019-05-15T06:15:05.532Z,50.72
2019-05-15T06:17:52.776Z,50.65
2019-05-15T06:20:40.715Z,47.53
2019-05-15T06:23:33.851Z,46.28
2019-05-15T06:26:19.915Z,45.57
2019-05-15T06:29:08.902Z,45.40
2019-05-15T06:31:56.158Z,47.40
2019-05-15T06:34:43.932Z,49.17
2019-05-15T06:37:31.195Z,51.87
2019-05-15T06:40:19.108Z,51.64
2019-05-15T06:43:08.808Z,52.54
2019-05-15T06:45:58.421Z,51.94
2019-05-15T06:48:45.659Z,51.08
2019-05-15T06:51:33.480Z,50.86
2019-05-15T06:54:21.166Z,50.31
2019-05-15T06:57:09.263Z,48.79
2019-05-15T06:59:57.915Z,48.17
2019-05-15T07:02:45.419Z,48.98
2019-05-15T07:05:34.540Z,49.24
2019-05-15T07:08:21.941Z,48.88
2019-05-15T07:11:09.781Z,47.71
2019-05-15T07:13:58.067Z,47.79
2019-05-15T07:16:48.490Z,46.44
2019-05-15T07:19:34.968Z,46.24
2019-05-15T07:22:22.456Z,46.20
2019-05-15T07:25:10.560Z,44.08
2019-05-15T07:27:58.256Z,44.97
2019-05-15T07:30:46.011Z,47.83
2019-05-15T07:33:39.358Z,47.75
2019-05-15T07:36:22.696Z,48.23
2019-05-15T07:39:10.356Z,47.99
2019-05-15T07:41:57.898Z,45.66
2019-05-15T07:44:48.015Z,41.34
2019-05-15T07:47:34.786Z,37.98
2019-05-15T07:50:23.092Z,37.22
2019-05-15T07:53:10.844Z,36.83
2019-05-15T07:56:01.816Z,38.56
2019-05-15T07:58:52.480Z,42.91
2019-05-15T08:01:38.833Z,43.39
2019-05-15T08:04:30.614Z,43.02
2019-05-15T08:07:18.333Z,43.75
2019-05-15T08:10:08.543Z,43.02
2019-05-15T08:12:55.386Z,42.02
2019-05-15T08:15:43.243Z,42.38
2019-05-15T08:18:30.812Z,42.44
2019-05-15T08:21:18.805Z,43.23
2019-05-15T08:24:08.482Z,43.72
2019-05-15T08:26:57.990Z,43.97
2019-05-15T08:29:44.776Z,44.64
2019-05-15T08:32:32.192Z,43.80
2019-05-15T08:35:19.985Z,43.95
2019-05-15T08:38:08.820Z,44.38
2019-05-15T08:40:59.034Z,43.45
2019-05-15T08:43:45.583Z,41.02
2019-05-15T08:46:32.847Z,38.65
2019-05-15T08:49:20.850Z,36.78
2019-05-15T08:52:10.167Z,38.80
2019-05-15T08:54:59.060Z,39.32
2019-05-15T08:57:54.231Z,39.58
2019-05-15T09:00:39.624Z,38.85
2019-05-15T09:03:25.662Z,39.39
2019-05-15T09:06:12.913Z,39.08
2019-05-15T09:09:00.552Z,39.69
2019-05-15T09:11:48.392Z,40.28
2019-05-15T09:14:38.048Z,40.05
2019-05-15T09:17:25.230Z,39.93
2019-05-15T09:20:12.627Z,38.72
2019-05-15T09:22:59.938Z,40.82
2019-05-15T09:25:49.333Z,41.54
2019-05-15T09:28:38.719Z,40.86
2019-05-15T09:31:25.305Z,40.88
2019-05-15T09:34:12.720Z,41.44
2019-05-15T09:37:00.938Z,40.58
2019-05-15T09:39:49.089Z,39.40
2019-05-15T09:42:38.711Z,40.02
2019-05-15T09:45:28.524Z,40.78
2019-05-15T09:48:15.610Z,40.47
2019-05-15T09:51:03.417Z,40.09
2019-05-15T09:53:50.711Z,39.45
2019-05-15T09:56:38.597Z,39.68
2019-05-15T09:59:28.183Z,40.34
2019-05-15T10:02:18.729Z,39.99
2019-05-15T10:05:10.448Z,38.82
2019-05-15T10:07:55.001Z,37.72
2019-05-15T10:10:42.699Z,37.63
2019-05-15T10:13:30.117Z,37.75
2019-05-15T10:16:19.892Z,38.31
2019-05-15T10:19:08.957Z,38.17
2019-05-15T10:21:55.893Z,38.33
2019-05-15T10:24:43.548Z,38.29
2019-05-15T10:27:31.419Z,37.95
2019-05-15T10:30:19.481Z,37.62
2019-05-15T10:33:08.536Z,37.80
2019-05-15T10:35:58.861Z,38.11
2019-05-15T10:38:45.282Z,38.80
2019-05-15T10:41:32.620Z,38.47
2019-05-15T10:44:20.232Z,37.55
2019-05-15T10:47:08.852Z,38.57
2019-05-15T10:50:00.154Z,38.23
2019-05-15T10:52:48.932Z,38.15
2019-05-15T10:55:39.439Z,37.89
2019-05-15T10:58:25.388Z,37.98
2019-05-15T11:01:12.550Z,38.80
2019-05-15T11:04:00.274Z,39.00
2019-05-15T11:06:49.125Z,38.84
2019-05-15T11:09:37.562Z,38.35
2019-05-15T11:12:25.820Z,38.22
2019-05-15T11:15:14.841Z,38.26
2019-05-15T11:18:02.343Z,39.03
2019-05-15T11:20:50.032Z,39.16
2019-05-15T11:23:39.519Z,39.07
2019-05-15T11:26:33.192Z,38.68
2019-05-15T11:29:15.996Z,38.27
2019-05-15T11:32:03.602Z,38.30
2019-05-15T11:34:50.913Z,38.22
2019-05-15T11:37:45.207Z,38.28
2019-05-15T11:40:28.397Z,38.46
2019-05-15T11:43:15.904Z,38.44
2019-05-15T11:46:03.707Z,38.77
2019-05-15T11:48:51.123Z,37.86
2019-05-15T11:51:38.503Z,36.57
2019-05-15T11:54:28.134Z,36.80
2019-05-15T11:57:15.084Z,38.29
2019-05-15T12:00:03.737Z,39.45
2019-05-15T12:02:51.766Z,38.52
2019-05-15T12:05:39.220Z,37.67
2019-05-15T12:08:29.041Z,37.05
2019-05-15T12:11:31.767Z,37.36
2019-05-15T12:14:08.374Z,37.25
2019-05-15T12:17:06.929Z,37.46
2019-05-15T12:19:44.213Z,38.11
2019-05-15T12:22:32.125Z,37.60
2019-05-15T12:25:19.729Z,37.25
2019-05-15T12:28:09.513Z,37.79
2019-05-15T12:30:59.656Z,37.10
2019-05-15T12:33:45.745Z,36.79
2019-05-15T12:36:50.759Z,36.77
2019-05-15T12:39:22.383Z,36.43
2019-05-15T13:01:54.807Z,36.50
2019-05-15T13:04:42.408Z,36.00
2019-05-15T13:07:29.902Z,35.61
2019-05-15T13:10:18.487Z,35.74
2019-05-15T13:13:08.913Z,35.93
2019-05-15T13:15:55.469Z,35.49
2019-05-15T13:18:42.924Z,35.96
2019-05-15T13:21:30.012Z,35.48
2019-05-15T13:24:19.351Z,36.77
2019-05-15T13:27:07.993Z,37.02
2019-05-15T13:29:58.276Z,37.08
2019-05-15T13:32:45.824Z,37.44
2019-05-15T13:35:33.552Z,36.57
2019-05-15T13:38:20.904Z,36.63
2019-05-15T13:41:09.389Z,35.13
2019-05-15T13:43:58.364Z,36.64
2019-05-15T13:46:46.251Z,37.63
2019-05-15T13:49:33.895Z,37.25
2019-05-15T13:52:21.641Z,36.58
2019-05-15T13:55:09.501Z,36.80
2019-05-15T13:57:58.016Z,36.80
2019-05-15T14:00:45.307Z,37.71
2019-05-15T14:03:32.580Z,37.50
2019-05-15T14:06:20.039Z,37.61
2019-05-15T14:09:08.997Z,36.96
2019-05-15T14:11:59.584Z,36.90
2019-05-15T14:14:48.456Z,36.10
2019-05-15T14:17:37.554Z,35.99
2019-05-15T14:20:24.566Z,36.08
2019-05-15T14:23:12.340Z,36.94
2019-05-15T14:26:13.042Z,37.81
2019-05-15T14:28:48.928Z,38.17
2019-05-15T14:31:39.295Z,38.77
2019-05-15T14:34:25.943Z,38.73
2019-05-15T14:37:13.821Z,38.38
2019-05-15T14:40:01.136Z,38.30
2019-05-15T14:42:48.745Z,38.18
2019-05-15T14:45:38.613Z,37.72
2019-05-15T14:48:25.470Z,38.32
2019-05-15T14:51:14.461Z,37.17
2019-05-15T14:54:01.921Z,36.88
2019-05-15T14:56:49.318Z,37.04
2019-05-15T14:59:38.173Z,37.85
2019-05-15T15:02:26.104Z,38.09
2019-05-15T15:05:13.815Z,37.77
2019-05-15T15:08:16.740Z,37.88
2019-05-15T15:10:50.599Z,37.47
2019-05-15T15:13:38.240Z,37.63
2019-05-15T15:16:25.723Z,37.72
2019-05-15T15:19:13.314Z,37.77
2019-05-15T15:22:00.752Z,38.23
2019-05-15T15:24:48.321Z,38.35
2019-05-15T15:27:38.486Z,38.43
2019-05-15T15:30:25.075Z,37.55
2019-05-15T15:33:12.511Z,37.63
2019-05-15T15:35:59.867Z,38.07
2019-05-15T15:38:48.393Z,38.26
2019-05-15T15:41:35.786Z,38.33
2019-05-15T15:44:23.181Z,38.24
2019-05-15T15:47:10.655Z,37.80
2019-05-15T15:49:58.614Z,37.85
2019-05-15T15:52:48.413Z,37.60
2019-05-15T15:55:38.264Z,37.70
2019-05-15T15:58:25.042Z,37.67
2019-05-15T16:01:12.423Z,37.88
2019-05-15T16:04:00.049Z,38.47
2019-05-15T16:06:48.271Z,38.44
2019-05-15T16:09:35.815Z,38.71
2019-05-15T16:12:23.508Z,39.51
2019-05-15T16:15:11.669Z,39.01
2019-05-15T16:17:59.543Z,39.21
2019-05-15T16:20:48.607Z,39.37
2019-05-15T16:23:35.869Z,39.17
2019-05-15T16:26:23.448Z,39.30
2019-05-15T16:29:10.864Z,39.14
2019-05-15T16:31:58.499Z,39.45
2019-05-15T16:34:47.838Z,39.30
2019-05-15T16:37:35.273Z,39.78
2019-05-15T16:40:22.436Z,39.18
2019-05-15T16:43:09.759Z,38.65
2019-05-15T16:45:58.892Z,38.84
2019-05-15T16:48:46.341Z,39.01
2019-05-15T16:51:38.116Z,39.04
2019-05-15T16:54:24.986Z,39.40
2019-05-15T16:57:13.758Z,39.26
2019-05-15T17:00:01.930Z,39.32
2019-05-15T17:02:49.190Z,39.53
2019-05-15T17:05:38.223Z,40.12
2019-05-15T17:08:25.279Z,39.99
2019-05-15T17:11:12.670Z,39.41
2019-05-15T17:14:00.069Z,39.57
2019-05-15T17:16:48.082Z,39.46
2019-05-15T17:19:36.119Z,39.46
2019-05-15T17:22:23.206Z,39.51
2019-05-15T17:25:10.593Z,39.53
2019-05-15T17:27:58.481Z,39.79
2019-05-15T17:30:48.617Z,39.71
2019-05-15T17:33:38.006Z,39.44
2019-05-15T17:36:24.977Z,39.61
2019-05-15T17:39:12.569Z,39.90
2019-05-15T17:42:00.069Z,40.18
2019-05-15T17:44:48.737Z,40.58
2019-05-15T17:47:38.660Z,40.37
2019-05-15T17:50:25.235Z,40.79
2019-05-15T17:53:13.081Z,40.40
2019-05-15T17:56:00.495Z,40.64
2019-05-15T17:58:48.735Z,41.10
2019-05-15T18:01:38.252Z,40.84
2019-05-15T18:04:28.141Z,40.72
2019-05-15T18:07:14.256Z,40.85
2019-05-15T18:10:02.020Z,41.64
2019-05-15T18:12:49.641Z,41.55
2019-05-15T18:15:38.586Z,41.37
2019-05-15T18:18:26.043Z,41.89
2019-05-15T18:21:13.977Z,41.72
2019-05-15T18:24:01.545Z,42.27
2019-05-15T18:26:49.118Z,41.95
2019-05-15T18:29:38.595Z,42.38
2019-05-15T18:32:28.508Z,42.60
2019-05-15T18:35:15.984Z,42.34
2019-05-15T18:38:03.601Z,43.01
2019-05-15T18:40:50.965Z,42.35
2019-05-15T18:43:38.401Z,42.52
2019-05-15T18:46:25.451Z,42.49
2019-05-15T18:49:13.130Z,43.18
2019-05-15T18:52:00.474Z,42.86
2019-05-15T18:54:48.177Z,42.97
2019-05-15T18:57:35.409Z,42.92
2019-05-15T19:00:22.819Z,43.18
2019-05-15T19:03:19.480Z,43.38
2019-05-15T19:05:59.422Z,43.69
2019-05-15T19:08:46.536Z,43.79
2019-05-15T19:11:34.174Z,44.12
2019-05-15T19:14:21.343Z,44.20
2019-05-15T19:17:08.949Z,44.50
2019-05-15T19:19:58.747Z,44.83
2019-05-15T19:22:48.260Z,44.60
2019-05-15T19:25:36.424Z,44.64
2019-05-15T19:28:24.053Z,45.00
2019-05-15T19:31:23.226Z,45.43
2019-05-15T19:34:00.541Z,45.16
2019-05-15T19:36:48.745Z,45.33
2019-05-15T19:39:38.724Z,45.20
2019-05-15T19:42:28.697Z,45.15
2019-05-15T19:45:15.980Z,45.37
2019-05-15T19:48:04.424Z,45.34
2019-05-15T19:50:51.636Z,45.69
2019-05-15T19:53:39.194Z,46.34
2019-05-15T19:56:26.971Z,45.28
2019-05-15T19:59:14.580Z,45.75
2019-05-15T20:02:02.048Z,45.99
2019-05-15T20:04:49.953Z,46.30
2019-05-15T20:07:38.879Z,46.31
2019-05-15T20:10:26.174Z,46.54
2019-05-15T20:13:13.758Z,46.90
2019-05-15T20:16:01.316Z,47.57
2019-05-15T20:18:48.728Z,47.26
2019-05-15T20:21:36.134Z,47.16
2019-05-15T20:24:23.729Z,46.95
2019-05-15T20:27:11.420Z,46.80
2019-05-15T20:29:59.021Z,46.54
2019-05-15T20:32:47.898Z,47.31
2019-05-15T20:35:40.067Z,46.89
2019-05-15T20:38:30.418Z,47.08
2019-05-15T20:41:18.702Z,47.51
2019-05-15T20:44:08.682Z,47.75
2019-05-15T20:46:59.109Z,47.55
2019-05-15T20:49:50.113Z,47.67
2019-05-15T20:52:43.137Z,47.42
2019-05-15T20:55:32.795Z,47.93
2019-05-15T20:58:23.432Z,47.76
2019-05-15T21:01:13.703Z,47.86
2019-05-15T21:04:15.292Z,47.84
2019-05-15T21:06:54.596Z,48.92
2019-05-15T21:09:44.011Z,48.54
2019-05-15T21:12:32.027Z,49.24
2019-05-15T21:15:24.293Z,48.84
2019-05-15T21:18:18.894Z,47.90
2019-05-15T21:21:03.663Z,48.64
2019-05-15T21:23:53.856Z,47.96
2019-05-15T21:26:41.486Z,48.18
2019-05-15T21:29:33.048Z,48.75
2019-05-15T21:32:24.382Z,49.04
2019-05-15T21:35:14.110Z,48.80
2019-05-15T21:38:01.440Z,48.96
2019-05-15T21:40:51.005Z,49.25
2019-05-15T21:43:39.062Z,49.56
2019-05-15T21:46:26.191Z,49.00
2019-05-15T21:49:13.272Z,49.48
2019-05-15T21:52:01.220Z,49.62
2019-05-15T21:54:50.413Z,49.72
2019-05-15T21:57:40.206Z,49.70
2019-05-15T22:00:33.574Z,50.16
2019-05-15T22:03:21.660Z,50.48
2019-05-15T22:06:08.861Z,49.91
2019-05-15T22:08:58.339Z,50.27
2019-05-15T22:11:46.181Z,50.16
2019-05-15T22:14:33.845Z,51.72
2019-05-15T22:17:20.913Z,51.79
2019-05-15T22:20:08.913Z,50.59
2019-05-15T22:22:59.623Z,50.10
2019-05-15T22:25:49.614Z,51.58
2019-05-15T22:28:38.477Z,52.09
2019-05-15T22:31:25.726Z,52.32
2019-05-15T22:34:12.823Z,52.53
2019-05-15T22:37:00.247Z,51.87
2019-05-15T22:39:47.509Z,51.96
2019-05-15T22:42:35.108Z,52.45
2019-05-15T22:45:22.976Z,53.03
2019-05-15T22:48:10.649Z,52.71
2019-05-15T22:50:58.387Z,52.92
2019-05-15T22:53:46.056Z,52.48
2019-05-15T22:56:33.492Z,52.52
2019-05-15T22:59:21.018Z,52.21
2019-05-15T23:02:09.268Z,52.48
2019-05-15T23:04:56.983Z,52.74
2019-05-15T23:07:44.924Z,51.91
2019-05-15T23:10:32.704Z,51.94
2019-05-15T23:13:20.093Z,51.86
2019-05-15T23:16:07.729Z,52.06
2019-05-15T23:18:55.273Z,52.05
2019-05-15T23:21:43.040Z,52.81
2019-05-15T23:24:30.533Z,52.23
2019-05-15T23:27:18.255Z,52.22
2019-05-15T23:30:06.098Z,52.29
2019-05-15T23:32:53.588Z,52.87
2019-05-15T23:35:41.726Z,53.01
2019-05-15T23:38:29.277Z,52.94
2019-05-15T23:41:18.881Z,52.60
2019-05-15T23:44:08.316Z,52.87
2019-05-15T23:46:56.724Z,52.75
2019-05-15T23:49:44.117Z,53.11
2019-05-15T23:52:31.540Z,53.68
2019-05-15T23:55:20.261Z,53.37
2019-05-15T23:58:09.012Z,53.83
